Погода Гувияна неделю

Ионические острова, Греция

31 августа-06 сентября
  • 31августа
    Сегодня
    +24°
    +35°
    Ясно и безоблачно
    ВремяПогодаТемператураВлажностьДавлениеВетер, м/сВероятность осадков
    00:00Ясно и безоблачно+28°C88 %761 мм3.1 м/с2 %
    03:00Ясно и безоблачно+27°C87 %761 мм4.7 м/с2 %
    06:00Ясно и безоблачно+27°C82 %760 мм3.8 м/с2 %
    09:00Ясно и безоблачно+28°C75 %760 мм3.7 м/с2 %
    12:00Ясно и безоблачно+32°C69 %761 мм4.5 м/с1 %
    15:00Ясно и безоблачно+34°C63 %760 мм3.9 м/с15 %
    18:00Практически безоблачно+33°C71 %760 мм2.9 м/с16 %
    21:00Ясно и безоблачно+29°C87 %760 мм1.9 м/с4 %
  • 01сентября
    Вторник
    +24°
    +36°
    Ясно и безоблачно
    ВремяПогодаТемператураВлажностьДавлениеВетер, м/сВероятность осадков
    00:00Ясно и безоблачно+27°C93 %761 мм1.3 м/с2 %
    03:00Ясно и безоблачно+26°C95 %761 мм0.9 м/с2 %
    06:00Ясно и безоблачно+25°C94 %761 мм0.6 м/с2 %
    09:00Ясно и безоблачно+28°C73 %761 мм1.1 м/с2 %
    12:00Ясно и безоблачно+33°C67 %762 мм2.0 м/с2 %
    15:00Ясно и безоблачно+35°C65 %761 мм3.8 м/с9 %
    18:00Ясно и безоблачно+34°C68 %761 мм2.7 м/с12 %
    21:00Ясно и безоблачно+30°C87 %761 мм1.9 м/с2 %
  • 02сентября
    Среда
    +23°
    +37°
    Ясно и безоблачно
    ВремяПогодаТемператураВлажностьДавлениеВетер, м/сВероятность осадков
    00:00Ясно и безоблачно+27°C91 %761 мм1.6 м/с2 %
    03:00Ясно и безоблачно+26°C95 %761 мм0.9 м/с2 %
    06:00Ясно и безоблачно+25°C91 %761 мм1.0 м/с2 %
    09:00Ясно и безоблачно+28°C77 %761 мм1.0 м/с2 %
    12:00Ясно и безоблачно+33°C63 %762 мм1.1 м/с2 %
    15:00Ясно и безоблачно+36°C59 %761 мм1.9 м/с3 %
    18:00Ясно и безоблачно+34°C66 %761 мм2.3 м/с2 %
    21:00Ясно и безоблачно+29°C78 %761 мм2.0 м/с2 %
  • 03сентября
    Четверг
    +23°
    +35°
    Ясно и безоблачно
    ВремяПогодаТемператураВлажностьДавлениеВетер, м/сВероятность осадков
    00:00Ясно и безоблачно+27°C86 %760 мм1.0 м/с2 %
    03:00Ясно и безоблачно+25°C88 %760 мм1.4 м/с2 %
    06:00Небольшая облачность+24°C95 %760 мм2.0 м/с2 %
    09:00Ясно и безоблачно+27°C80 %760 мм2.5 м/с2 %
    12:00Ясно и безоблачно+33°C45 %760 мм3.1 м/с2 %
    15:00Ясно и безоблачно+35°C58 %760 мм5.5 м/с2 %
    18:00Ясно и безоблачно+32°C71 %759 мм6.0 м/с2 %
    21:00Ясно и безоблачно+29°C79 %760 мм2.3 м/с4 %
  • 04сентября
    Пятница
    +22°
    +35°
    Ясно и безоблачно
    ВремяПогодаТемператураВлажностьДавлениеВетер, м/сВероятность осадков
    00:00Ясно и безоблачно+27°C74 %760 мм1.1 м/с2 %
    03:00Ясно и безоблачно+25°C78 %760 мм0.2 м/с2 %
    06:00Ясно и безоблачно+24°C73 %760 мм0.2 м/с2 %
    09:00Ясно и безоблачно+27°C57 %761 мм0.7 м/с2 %
    12:00Ясно и безоблачно+32°C46 %762 мм1.3 м/с2 %
    15:00Ясно и безоблачно+34°C40 %762 мм4.8 м/с2 %
    18:00Ясно и безоблачно+33°C52 %761 мм4.7 м/с2 %
    21:00Ясно и безоблачно+29°C64 %762 мм3.7 м/с2 %
  • 05сентября
    Суббота
    +24°
    +34°
    Ясно и безоблачно
    ВремяПогодаТемператураВлажностьДавлениеВетер, м/сВероятность осадков
    03:00Ясно и безоблачно+24°C67 %763 мм0.8 м/с2 %
    09:00Ясно и безоблачно+27°C48 %765 мм0.2 м/с2 %
    15:00Ясно и безоблачно+30°C48 %765 мм3.0 м/с2 %
    21:00Ясно и безоблачно+27°C60 %763 мм3.9 м/с2 %
  • 06сентября
    Воскресенье
    +24°
    +32°
    Ясно и безоблачно
    ВремяПогодаТемператураВлажностьДавлениеВетер, м/сВероятность осадков
    03:00Ясно и безоблачно+26°C70 %763 мм2.3 м/с2 %
    09:00Ясно и безоблачно+27°C69 %764 мм2.1 м/с2 %
    15:00Ясно и безоблачно+31°C63 %764 мм3.9 м/с2 %
    21:00Ясно и безоблачно+27°C73 %763 мм3.5 м/с2 %
Мы используем cookies
Соглашаюсь